Observation data for Brownfield on 11/18/2019      Previous  Date       Current Mesonet Observations  Soil Data  Daily Summary Page  Observations in Plain Language
KBWS 180600Z 24007KT 05/01 A301 RMK A01 T00490008  RH  076%=      5-min Rain = 0
KBWS 180605Z 24006KT 05/01 A3009 RMK A01 T00470008  RH  077%=      5-min Rain = 0
KBWS 180610Z 24006KT 05/01 A3009 RMK A01 T00470008  RH  077%=      5-min Rain = 0
KBWS 180615Z 24005KT 05/01 A3009 RMK A01 T00460008  RH  077%=      5-min Rain = 0
KBWS 180620Z 24006KT 05/01 A3009 RMK A01 T00490008  RH  076%=      5-min Rain = 0
KBWS 180625Z 24005KT 05/01 A3009 RMK A01 T00510008  RH  074%=      5-min Rain = 0
KBWS 180630Z 24005KT 05/01 A3008 RMK A01 T00520007  RH  074%=      5-min Rain = 0
KBWS 180635Z 24005KT 05/01 A3008 RMK A01 T00520007  RH  074%=      5-min Rain = 0
KBWS 180640Z 24005KT 05/01 A3008 RMK A01 T00540008  RH  073%=      5-min Rain = 0
KBWS 180645Z 24005KT 06/01 A3007 RMK A01 T00550007  RH  072%=      5-min Rain = 0
KBWS 180650Z 24006KT 05/01 A3007 RMK A01 T00520006  RH  073%=      5-min Rain = 0
KBWS 180655Z 24006KT 05/01 A3007 RMK A01 T00490006  RH  075%=      5-min Rain = 0
KBWS 180700Z 24005KT 05/01 A3007 RMK A01 T00500007  RH  075%=      5-min Rain = 0
KBWS 180705Z 24006KT 05/01 A3007 RMK A01 T00510007  RH  074%=      5-min Rain = 0
KBWS 180710Z 24006KT 05/01 A3006 RMK A01 T00500007  RH  074%=      5-min Rain = 0
KBWS 180715Z 24006KT 05/01 A3006 RMK A01 T00470006  RH  076%=      5-min Rain = 0
KBWS 180720Z 25006KT 05/01 A3006 RMK A01 T00450006  RH  077%=      5-min Rain = 0
KBWS 180725Z 25006KT 05/01 A3006 RMK A01 T00450007  RH  077%=      5-min Rain = 0
KBWS 180730Z 24006KT 05/01 A3005 RMK A01 T00450007  RH  077%=      5-min Rain = 0
KBWS 180735Z 24006KT 04/01 A3005 RMK A01 T00440006  RH  077%=      5-min Rain = 0
KBWS 180740Z 24006KT 04/01 A3005 RMK A01 T00440006  RH  077%=      5-min Rain = 0
KBWS 180745Z 24006KT 04/00 A3004 RMK A01 T00410004  RH  078%=      5-min Rain = 0
KBWS 180750Z 24007KT 04/01 A3005 RMK A01 T00410005  RH  078%=      5-min Rain = 0
KBWS 180755Z 24007KT 04/01 A3004 RMK A01 T00430007  RH  078%=      5-min Rain = 0
KBWS 180800Z 24007KT 04/01 A3004 RMK A01 T00440006  RH  077%=      5-min Rain = 0
KBWS 180805Z 24007KT 04/01 A3004 RMK A01 T00440006  RH  077%=      5-min Rain = 0
KBWS 180810Z 25007KT 04/01 A3004 RMK A01 T00430006  RH  078%=      5-min Rain = 0
KBWS 180815Z 25007KT 04/01 A3005 RMK A01 T00440007  RH  078%=      5-min Rain = 0
KBWS 180820Z 25007KT 05/01 A3005 RMK A01 T00450008  RH  078%=      5-min Rain = 0
KBWS 180825Z 25007KT 05/01 A3004 RMK A01 T00470008  RH  077%=      5-min Rain = 0
KBWS 180830Z 25007KT 05/01 A3004 RMK A01 T00470008  RH  077%=      5-min Rain = 0
KBWS 180835Z 25007KT 05/01 A3004 RMK A01 T00450007  RH  077%=      5-min Rain = 0
KBWS 180840Z 25007KT 05/01 A3004 RMK A01 T00450008  RH  078%=      5-min Rain = 0
KBWS 180845Z 25007KT 05/01 A3004 RMK A01 T00450007  RH  078%=      5-min Rain = 0
KBWS 180850Z 25007KT 04/01 A3003 RMK A01 T00440007  RH  078%=      5-min Rain = 0
KBWS 180855Z 26006KT 04/01 A3003 RMK A01 T00430006  RH  078%=      5-min Rain = 0
KBWS 180900Z 26005KT 04/01 A3003 RMK A01 T00440007  RH  078%=      5-min Rain = 0
KBWS 180905Z 26006KT 04/01 A3003 RMK A01 T00430006  RH  078%=      5-min Rain = 0
KBWS 180910Z 26006KT 04/01 A3003 RMK A01 T00420006  RH  078%=      5-min Rain = 0
KBWS 180915Z 26006KT 04/01 A3002 RMK A01 T00420006  RH  078%=      5-min Rain = 0
KBWS 180920Z 25006KT 04/01 A3002 RMK A01 T00410006  RH  079%=      5-min Rain = 0
KBWS 180925Z 25006KT 04/01 A3002 RMK A01 T00390005  RH  079%=      5-min Rain = 0
KBWS 180930Z 25007KT 04/01 A3002 RMK A01 T00380005  RH  080%=      5-min Rain = 0
KBWS 180935Z 26007KT 04/01 A3002 RMK A01 T00380005  RH  080%=      5-min Rain = 0
KBWS 180940Z 26008KT 04/01 A3002 RMK A01 T00390006  RH  080%=      5-min Rain = 0
KBWS 180945Z 26008KT 04/01 A3002 RMK A01 T00410007  RH  079%=      5-min Rain = 0
KBWS 180950Z 26007KT 04/01 A3002 RMK A01 T00430007  RH  079%=      5-min Rain = 0
KBWS 180955Z 26007KT 04/01 A3002 RMK A01 T00440007  RH  078%=      5-min Rain = 0
KBWS 181000Z 26007KT 04/01 A3002 RMK A01 T00420006  RH  078%=      5-min Rain = 0
KBWS 181005Z 25008KT 04/01 A3002 RMK A01 T00400006  RH  079%=      5-min Rain = 0
KBWS 181010Z 25008KT 04/01 A3002 RMK A01 T00380005  RH  080%=      5-min Rain = 0
KBWS 181015Z 25008KT 04/01 A3001 RMK A01 T00380005  RH  080%=      5-min Rain = 0
KBWS 181020Z 25008KT 04/01 A3001 RMK A01 T00390006  RH  080%=      5-min Rain = 0
KBWS 181025Z 25008KT 04/01 A3001 RMK A01 T00390006  RH  080%=      5-min Rain = 0
KBWS 181030Z 25008KT 04/01 A30 RMK A01 T00390006  RH  080%=      5-min Rain = 0
KBWS 181035Z 24007KT 04/01 A30 RMK A01 T00390007  RH  080%=      5-min Rain = 0
KBWS 181040Z 24008KT 04/01 A30 RMK A01 T00430008  RH  079%=      5-min Rain = 0
KBWS 181045Z 24008KT 05/01 A30 RMK A01 T00470009  RH  077%=      5-min Rain = 0
KBWS 181050Z 24009KT 05/01 A30 RMK A01 T00480008  RH  077%=      5-min Rain = 0
KBWS 181055Z 24009KT 05/01 A30 RMK A01 T00470007  RH  076%=      5-min Rain = 0
KBWS 181100Z 25008KT 05/01 A30 RMK A01 T00450006  RH  077%=      5-min Rain = 0
KBWS 181105Z 24008KT 04/01 A30 RMK A01 T00420006  RH  078%=      5-min Rain = 0
KBWS 181110Z 24008KT 04/01 A2999 RMK A01 T00410006  RH  079%=      5-min Rain = 0
KBWS 181115Z 24009KT 04/01 A2999 RMK A01 T00430006  RH  078%=      5-min Rain = 0
KBWS 181120Z 24009KT 04/01 A2999 RMK A01 T00440006  RH  077%=      5-min Rain = 0
KBWS 181125Z 24008KT 04/01 A2999 RMK A01 T00410005  RH  078%=      5-min Rain = 0
KBWS 181130Z 23008KT 04/01 A2999 RMK A01 T00410006  RH  079%=      5-min Rain = 0
KBWS 181135Z 24008KT 04/01 A2999 RMK A01 T00400005  RH  079%=      5-min Rain = 0
KBWS 181140Z 24009KT 04/01 A2999 RMK A01 T00380005  RH  080%=      5-min Rain = 0
KBWS 181145Z 24009KT 04/01 A2999 RMK A01 T00380005  RH  080%=      5-min Rain = 0
KBWS 181150Z 25008KT 04/01 A2999 RMK A01 T00380005  RH  080%=      5-min Rain = 0
KBWS 181155Z 25008KT 04/01 A2999 RMK A01 T00370006  RH  081%=      5-min Rain = 0
KBWS 181200Z 25007KT 04/01 A2999 RMK A01 T00370005  RH  081%=      5-min Rain = 0
KBWS 181205Z 25007KT 04/01 A2999 RMK A01 T00360005  RH  081%=      5-min Rain = 0
KBWS 181210Z 25008KT 04/01 A2999 RMK A01 T00370006  RH  081%=      5-min Rain = 0
KBWS 181215Z 25007KT 04/01 A2999 RMK A01 T00370006  RH  081%=      5-min Rain = 0
KBWS 181220Z 25007KT 04/01 A2999 RMK A01 T00350005  RH  082%=      5-min Rain = 0
KBWS 181225Z 25007KT 03/00 A2999 RMK A01 T00330004  RH  083%=      5-min Rain = 0
KBWS 181230Z 25008KT 04/01 A2998 RMK A01 T00350005  RH  082%=      5-min Rain = 0
KBWS 181235Z 24006KT 04/00 A2999 RMK A01 T00350004  RH  081%=      5-min Rain = 0
KBWS 181240Z 25006KT 03/00 A2999 RMK A01 T00320003  RH  082%=      5-min Rain = 0
KBWS 181245Z 25006KT 03/00 A2999 RMK A01 T00310003  RH  083%=      5-min Rain = 0
KBWS 181250Z 25006KT 03/00 A2998 RMK A01 T00310003  RH  083%=      5-min Rain = 0
KBWS 181255Z 24006KT 03/00 A2998 RMK A01 T00290002  RH  083%=      5-min Rain = 0
KBWS 181300Z 24006KT 03/00 A2998 RMK A01 T00290001  RH  083%=      5-min Rain = 0
KBWS 181305Z 24007KT 03/00 A2998 RMK A01 T00290002  RH  083%=      5-min Rain = 0
KBWS 181310Z 24008KT 03/00 A2998 RMK A01 T00320003  RH  082%=      5-min Rain = 0
KBWS 181315Z 25008KT 04/00 A2998 RMK A01 T00350004  RH  081%=      5-min Rain = 0
KBWS 181320Z 25008KT 04/00 A2998 RMK A01 T00360004  RH  081%=      5-min Rain = 0
KBWS 181325Z 25007KT 03/00 A2998 RMK A01 T00330003  RH  082%=      5-min Rain = 0
KBWS 181330Z 26008KT 03/00 A2998 RMK A01 T00300002  RH  083%=      5-min Rain = 0
KBWS 181335Z 25008KT 03/00 A2998 RMK A01 T00330003  RH  082%=      5-min Rain = 0
KBWS 181340Z 25008KT 03/00 A2998 RMK A01 T00330003  RH  082%=      5-min Rain = 0
KBWS 181345Z 26007KT 03/01 A2999 RMK A01 T00340005  RH  082%=      5-min Rain = 0
KBWS 181350Z 27005KT 04/01 A2999 RMK A01 T00400006  RH  080%=      5-min Rain = 0
KBWS 181355Z 27006KT 04/01 A2999 RMK A01 T00440006  RH  078%=      5-min Rain = 0
KBWS 181400Z 28006KT 05/01 A30 RMK A01 T00450006  RH  077%=      5-min Rain = 0
KBWS 181405Z 27006KT 05/01 A30 RMK A01 T00470007  RH  076%=      5-min Rain = 0
KBWS 181410Z 27006KT 05/01 A2999 RMK A01 T00510009  RH  075%=      5-min Rain = 0
KBWS 181415Z 27007KT 06/01 A2999 RMK A01 T00550009  RH  073%=      5-min Rain = 0
KBWS 181420Z 27007KT 06/01 A2999 RMK A01 T00590011  RH  072%=      5-min Rain = 0
KBWS 181425Z 27008KT 06/01 A2999 RMK A01 T00640013  RH  071%=      5-min Rain = 0
KBWS 181430Z 27008KT 07/01 A30 RMK A01 T00700013  RH  068%=      5-min Rain = 0
KBWS 181435Z 27008KT 08/02 A30 RMK A01 T00750015  RH  067%=      5-min Rain = 0
KBWS 181440Z 27007KT 08/02 A30 RMK A01 T00800017  RH  065%=      5-min Rain = 0
KBWS 181445Z 27007KT 09/02 A30 RMK A01 T00850018  RH  064%=      5-min Rain = 0
KBWS 181450Z 27006KT 09/02 A30 RMK A01 T00900021  RH  063%=      5-min Rain = 0
KBWS 181455Z 26008KT 10/02 A30 RMK A01 T00960024  RH  062%=      5-min Rain = 0
KBWS 181500Z 26008KT 10/03 A30 RMK A01 T01010025  RH  060%=      5-min Rain = 0
KBWS 181505Z 26008KT 11/03 A30 RMK A01 T01060025  RH  058%=      5-min Rain = 0
KBWS 181510Z 27009KT 11/02 A30 RMK A01 T01090022  RH  056%=      5-min Rain = 0
KBWS 181515Z 27009KT 11/02 A30 RMK A01 T01110021  RH  055%=      5-min Rain = 0
KBWS 181520Z 27008KT 12/02 A30 RMK A01 T01150024  RH  054%=      5-min Rain = 0
KBWS 181525Z 26010G16KT 12/03 A30 RMK A01 T01190025  RH  054%=      5-min Rain = 0
KBWS 181530Z 25010KT 12/03 A30 RMK A01 T01230025  RH  052%=      5-min Rain = 0
KBWS 181535Z 26010KT 13/02 A30 RMK A01 T01250023  RH  051%=      5-min Rain = 0
KBWS 181540Z 26009KT 13/02 A30 RMK A01 T01290024  RH  049%=      5-min Rain = 0
KBWS 181545Z 26009KT 14/03 A30 RMK A01 T01350025  RH  048%=      5-min Rain = 0
KBWS 181550Z 26008KT 14/02 A30 RMK A01 T01390023  RH  046%=      5-min Rain = 0
KBWS 181555Z 26008KT 15/02 A30 RMK A01 T01450024  RH  045%=      5-min Rain = 0
KBWS 181600Z 27008G13KT 15/02 A30 RMK A01 T01510021  RH  042%=      5-min Rain = 0
KBWS 181605Z 27008KT 16/02 A30 RMK A01 T01560018  RH  040%=      5-min Rain = 0
KBWS 181610Z 27008G13KT 16/02 A2999 RMK A01 T01600018  RH  039%=      5-min Rain = 0
KBWS 181615Z 26010KT 17/01 A2999 RMK A01 T01650010  RH  035%=      5-min Rain = 0
KBWS 181620Z 27009KT 17/01 A2999 RMK A01 T01700009  RH  034%=      5-min Rain = 0
KBWS 181625Z 27010KT 18/01 A2999 RMK A01 T01750007  RH  033%=      5-min Rain = 0
KBWS 181630Z 27009KT 18/00 A2999 RMK A01 T01780004  RH  031%=      5-min Rain = 0
KBWS 181635Z 27011G16KT 18/00 A2998 RMK A01 T01810001  RH  030%=      5-min Rain = 0
KBWS 181640Z 28012KT 18/M01 A2998 RMK A01 T01831005  RH  028%=      5-min Rain = 0
KBWS 181645Z 29012KT 19/M01 A2998 RMK A01 T01861011  RH  027%=      5-min Rain = 0
KBWS 181650Z 29014KT 19/M02 A2998 RMK A01 T01881017  RH  025%=      5-min Rain = 0
KBWS 181655Z 29013KT 19/M02 A2998 RMK A01 T01881017  RH  025%=      5-min Rain = 0
KBWS 181700Z 29012KT 19/M02 A2998 RMK A01 T01901015  RH  025%=      5-min Rain = 0
KBWS 181705Z 30013KT 19/M02 A2998 RMK A01 T01891020  RH  024%=      5-min Rain = 0
KBWS 181710Z 30012G17KT 19/M02 A2998 RMK A01 T01901017  RH  025%=      5-min Rain = 0
KBWS 181715Z 29013KT 19/M02 A2998 RMK A01 T01911018  RH  024%=      5-min Rain = 0
KBWS 181720Z 30011KT 19/M02 A2998 RMK A01 T01891017  RH  025%=      5-min Rain = 0
KBWS 181725Z 31011KT 19/M01 A2998 RMK A01 T01921014  RH  025%=      5-min Rain = 0
KBWS 181730Z 31011KT 19/M01 A2998 RMK A01 T01901013  RH  026%=      5-min Rain = 0
KBWS 181735Z 30012KT 19/M01 A2998 RMK A01 T01921012  RH  025%=      5-min Rain = 0
KBWS 181740Z 30011KT 20/M01 A2998 RMK A01 T01961010  RH  025%=      5-min Rain = 0
KBWS 181745Z 31010KT 20/M01 A2997 RMK A01 T01991014  RH  024%=      5-min Rain = 0
KBWS 181750Z 30010KT 20/M02 A2997 RMK A01 T02031016  RH  023%=      5-min Rain = 0
KBWS 181755Z 30010KT 20/M02 A2997 RMK A01 T02021017  RH  023%=      5-min Rain = 0
KBWS 181800Z 32010KT 20/M02 A2996 RMK A01 T02021020  RH  023%=      5-min Rain = 0
KBWS 181805Z 33010KT 20/M02 A2996 RMK A01 T01991019  RH  023%=      5-min Rain = 0
KBWS 181810Z 31009G14KT 20/M01 A2996 RMK A01 T02021013  RH  024%=      5-min Rain = 0
KBWS 181815Z 30007KT 20/M01 A2995 RMK A01 T02041012  RH  023%=      5-min Rain = 0
KBWS 181820Z 30007KT 21/M01 A2995 RMK A01 T02071010  RH  024%=      5-min Rain = 0
KBWS 181825Z 29007KT 21/M01 A2995 RMK A01 T02091010  RH  023%=      5-min Rain = 0
KBWS 181830Z 30005KT 21/M01 A2995 RMK A01 T02101012  RH  023%=      5-min Rain = 0
KBWS 181835Z 33006KT 21/M01 A2995 RMK A01 T02121014  RH  022%=      5-min Rain = 0
KBWS 181840Z 36009KT 21/M02 A2995 RMK A01 T02101021  RH  021%=      5-min Rain = 0
KBWS 181845Z 34008KT 21/M02 A2994 RMK A01 T02101021  RH  021%=      5-min Rain = 0
KBWS 181850Z 35007KT 21/M02 A2994 RMK A01 T02101023  RH  021%=      5-min Rain = 0
KBWS 181855Z 36007KT 21/M02 A2994 RMK A01 T02121020  RH  021%=      5-min Rain = 0
KBWS 181900Z 36005KT 21/M02 A2994 RMK A01 T02131021  RH  021%=      5-min Rain = 0
KBWS 181905Z 34004KT 21/M02 A2993 RMK A01 T02141020  RH  021%=      5-min Rain = 0
KBWS 181910Z 34005KT 22/M02 A2993 RMK A01 T02171021  RH  020%=      5-min Rain = 0
KBWS 181915Z 33004KT 22/M02 A2993 RMK A01 T02161022  RH  020%=      5-min Rain = 0
KBWS 181920Z 00005KT 22/M02 A2992 RMK A01 T02171022  RH  020%=      5-min Rain = 0
KBWS 181925Z 00007KT 22/M02 A2992 RMK A01 T02191019  RH  020%=      5-min Rain = 0
KBWS 181930Z 00005KT 22/M02 A2992 RMK A01 T02181022  RH  020%=      5-min Rain = 0
KBWS 181935Z 36005KT 22/M02 A2991 RMK A01 T02161021  RH  020%=      5-min Rain = 0
KBWS 181940Z 35004KT 22/M02 A2991 RMK A01 T02181019  RH  021%=      5-min Rain = 0
KBWS 181945Z 32005KT 22/M02 A2991 RMK A01 T02201018  RH  020%=      5-min Rain = 0
KBWS 181950Z 32004KT 22/M02 A299 RMK A01 T02231016  RH  020%=      5-min Rain = 0
KBWS 181955Z 33004KT 22/M02 A299 RMK A01 T02221017  RH  020%=      5-min Rain = 0
KBWS 182000Z 29004KT 23/M02 A299 RMK A01 T02251016  RH  020%=      5-min Rain = 0
KBWS 182005Z 34003KT 23/M01 A299 RMK A01 T02271014  RH  020%=      5-min Rain = 0
KBWS 182010Z 00004KT 23/M02 A299 RMK A01 T02261016  RH  020%=      5-min Rain = 0
KBWS 182015Z 35005KT 23/M02 A2989 RMK A01 T02261016  RH  020%=      5-min Rain = 0
KBWS 182020Z 36005KT 23/M02 A2989 RMK A01 T02251016  RH  020%=      5-min Rain = 0
KBWS 182025Z 00003KT 23/M02 A2989 RMK A01 T02261018  RH  020%=      5-min Rain = 0
KBWS 182030Z 01003KT 23/M02 A2989 RMK A01 T02291016  RH  020%=      5-min Rain = 0
KBWS 182035Z 02001KT 23/M02 A2989 RMK A01 T02341016  RH  019%=      5-min Rain = 0
KBWS 182040Z 35004KT 23/M01 A2989 RMK A01 T02341012  RH  020%=      5-min Rain = 0
KBWS 182045Z 35002KT 23/M02 A2989 RMK A01 T02331019  RH  019%=      5-min Rain = 0
KBWS 182050Z 02001KT 23/M02 A2989 RMK A01 T02341018  RH  019%=      5-min Rain = 0
KBWS 182055Z 02003KT 24/M01 A2989 RMK A01 T02361013  RH  019%=      5-min Rain = 0
KBWS 182100Z 02003KT 24/M02 A2989 RMK A01 T02371015  RH  019%=      5-min Rain = 0
KBWS 182105Z 34003KT 24/M01 A2989 RMK A01 T02371014  RH  019%=      5-min Rain = 0
KBWS 182110Z 33003KT 24/M02 A2989 RMK A01 T02371016  RH  019%=      5-min Rain = 0
KBWS 182115Z 34002KT 24/M02 A2989 RMK A01 T02381015  RH  019%=      5-min Rain = 0
KBWS 182120Z 36001KT 24/M02 A2989 RMK A01 T02401016  RH  018%=      5-min Rain = 0
KBWS 182125Z 18001KT 25/M01 A2989 RMK A01 T02471012  RH  018%=      5-min Rain = 0
KBWS 182130Z 16001KT 25/M01 A2989 RMK A01 T02491009  RH  018%=      5-min Rain = 0
KBWS 182135Z 05001KT 25/M01 A299 RMK A01 T02481013  RH  018%=      5-min Rain = 0
KBWS 182140Z 03003KT 24/M01 A299 RMK A01 T02411010  RH  019%=      5-min Rain = 0
KBWS 182145Z 30002KT 24/M01 A299 RMK A01 T02441014  RH  018%=      5-min Rain = 0
KBWS 182150Z 34003KT 24/M02 A299 RMK A01 T02441016  RH  018%=      5-min Rain = 0
KBWS 182155Z 01006KT 24/M02 A299 RMK A01 T02391016  RH  018%=      5-min Rain = 0
KBWS 182200Z 02004KT 24/M02 A299 RMK A01 T02371017  RH  019%=      5-min Rain = 0
KBWS 182205Z 02004KT 24/M01 A299 RMK A01 T02381011  RH  019%=      5-min Rain = 0
KBWS 182210Z 04006KT 24/M01 A299 RMK A01 T02361005  RH  020%=      5-min Rain = 0
KBWS 182215Z 05005KT 23/M01 A299 RMK A01 T02331009  RH  020%=      5-min Rain = 0
KBWS 182220Z 04006KT 23/M00 A299 RMK A01 T02321002  RH  021%=      5-min Rain = 0
KBWS 182225Z 04006KT 23/M01 A2991 RMK A01 T02301005  RH  021%=      5-min Rain = 0
KBWS 182230Z 03006KT 23/M01 A2991 RMK A01 T02291009  RH  021%=      5-min Rain = 0
KBWS 182235Z 03006KT 23/M01 A2991 RMK A01 T02301007  RH  021%=      5-min Rain = 0
KBWS 182240Z 04006KT 23/M01 A2991 RMK A01 T02281007  RH  021%=      5-min Rain = 0
KBWS 182245Z 03007KT 23/M01 A2991 RMK A01 T02271006  RH  022%=      5-min Rain = 0
KBWS 182250Z 04005KT 22/M00 A2991 RMK A01 T02241002  RH  022%=      5-min Rain = 0
KBWS 182255Z 04004KT 22/00 A2991 RMK A01 T02220001  RH  023%=      5-min Rain = 0
KBWS 182300Z 03005KT 22/01 A2991 RMK A01 T02190005  RH  024%=      5-min Rain = 0
KBWS 182305Z 04006KT 22/00 A2991 RMK A01 T02160004  RH  025%=      5-min Rain = 0
KBWS 182310Z 05006KT 21/01 A2991 RMK A01 T02100008  RH  026%=      5-min Rain = 0
KBWS 182315Z 06005KT 21/01 A2991 RMK A01 T02060007  RH  027%=      5-min Rain = 0
KBWS 182320Z 06005KT 20/01 A2992 RMK A01 T02040005  RH  027%=      5-min Rain = 0
KBWS 182325Z 06005KT 20/01 A2991 RMK A01 T02020006  RH  027%=      5-min Rain = 0
KBWS 182330Z 05005KT 20/01 A2991 RMK A01 T01950011  RH  030%=      5-min Rain = 0
KBWS 182335Z 05004KT 19/01 A2992 RMK A01 T01900007  RH  030%=      5-min Rain = 0
KBWS 182340Z 06004KT 19/01 A2992 RMK A01 T01890006  RH  030%=      5-min Rain = 0
KBWS 182345Z 06003KT 19/01 A2992 RMK A01 T01850008  RH  031%=      5-min Rain = 0
KBWS 182350Z 07003KT 18/01 A2992 RMK A01 T01800007  RH  031%=      5-min Rain = 0
KBWS 182355Z 10002KT 17/01 A2992 RMK A01 T01740007  RH  033%=      5-min Rain = 0
KBWS 190000Z 10003KT 17/00 A2992 RMK A01 T01710003  RH  032%=      5-min Rain = 0
KBWS 190005Z 08003KT 17/00 A2992 RMK A01 T01680003  RH  033%=      5-min Rain = 0
KBWS 190010Z 08003KT 17/01 A2992 RMK A01 T01670008  RH  035%=      5-min Rain = 0
KBWS 190015Z 09003KT 17/00 A2992 RMK A01 T01680004  RH  033%=      5-min Rain = 0
KBWS 190020Z 08003KT 17/00 A2993 RMK A01 T01690003  RH  033%=      5-min Rain = 0
KBWS 190025Z 08003KT 17/01 A2993 RMK A01 T01670007  RH  034%=      5-min Rain = 0
KBWS 190030Z 07003KT 17/00 A2993 RMK A01 T01660004  RH  034%=      5-min Rain = 0
KBWS 190035Z 07004KT 17/01 A2993 RMK A01 T01660008  RH  035%=      5-min Rain = 0
KBWS 190040Z 07004KT 16/00 A2993 RMK A01 T01610002  RH  034%=      5-min Rain = 0
KBWS 190045Z 07003KT 16/00 A2993 RMK A01 T01620000  RH  034%=      5-min Rain = 0
KBWS 190050Z 08003KT 16/M00 A2993 RMK A01 T01621001  RH  033%=      5-min Rain = 0
KBWS 190055Z 08003KT 16/M00 A2993 RMK A01 T01631002  RH  033%=      5-min Rain = 0
KBWS 190100Z 08002KT 16/M00 A2994 RMK A01 T01631004  RH  032%=      5-min Rain = 0
KBWS 190105Z 08002KT 16/M01 A2994 RMK A01 T01641005  RH  032%=      5-min Rain = 0
KBWS 190110Z 06003KT 16/M00 A2994 RMK A01 T01601002  RH  034%=      5-min Rain = 0
KBWS 190115Z 06003KT 16/M00 A2994 RMK A01 T01551001  RH  035%=      5-min Rain = 0
KBWS 190120Z 06003KT 16/00 A2995 RMK A01 T015500-0  RH  035%=      5-min Rain = 0
KBWS 190125Z 08003KT 15/00 A2995 RMK A01 T01540002  RH  036%=      5-min Rain = 0
KBWS 190130Z 09003KT 14/01 A2995 RMK A01 T01410006  RH  040%=      5-min Rain = 0
KBWS 190135Z 08003KT 14/01 A2995 RMK A01 T01350012  RH  044%=      5-min Rain = 0
KBWS 190140Z 09003KT 13/01 A2996 RMK A01 T01300014  RH  046%=      5-min Rain = 0
KBWS 190145Z 09004KT 13/01 A2996 RMK A01 T01340006  RH  042%=      5-min Rain = 0
KBWS 190150Z 06003KT 13/01 A2996 RMK A01 T01310011  RH  045%=      5-min Rain = 0
KBWS 190155Z 05004KT 14/00 A2996 RMK A01 T01370003  RH  040%=      5-min Rain = 0
KBWS 190200Z 05004KT 14/00 A2996 RMK A01 T01400004  RH  040%=      5-min Rain = 0
KBWS 190205Z 06004KT 14/00 A2997 RMK A01 T01400004  RH  040%=      5-min Rain = 0
KBWS 190210Z 06004KT 14/00 A2997 RMK A01 T01390003  RH  040%=      5-min Rain = 0
KBWS 190215Z 05005KT 14/00 A2997 RMK A01 T01370004  RH  041%=      5-min Rain = 0
KBWS 190220Z 05004KT 14/00 A2997 RMK A01 T01350004  RH  041%=      5-min Rain = 0
KBWS 190225Z 05004KT 14/01 A2997 RMK A01 T01370005  RH  041%=      5-min Rain = 0
KBWS 190230Z 05004KT 14/01 A2997 RMK A01 T01360005  RH  041%=      5-min Rain = 0
KBWS 190235Z 05004KT 14/00 A2998 RMK A01 T01370003  RH  041%=      5-min Rain = 0
KBWS 190240Z 05003KT 14/00 A2998 RMK A01 T01390002  RH  040%=      5-min Rain = 0
KBWS 190245Z 05003KT 14/00 A2998 RMK A01 T01400002  RH  039%=      5-min Rain = 0
KBWS 190250Z 05003KT 14/00 A2998 RMK A01 T01400002  RH  039%=      5-min Rain = 0
KBWS 190255Z 05003KT 14/00 A2998 RMK A01 T01410002  RH  039%=      5-min Rain = 0
KBWS 190300Z 05003KT 14/00 A2998 RMK A01 T01420001  RH  038%=      5-min Rain = 0
KBWS 190305Z 06004KT 14/00 A2998 RMK A01 T01420000  RH  038%=      5-min Rain = 0
KBWS 190310Z 06004KT 14/00 A2999 RMK A01 T01390002  RH  039%=      5-min Rain = 0
KBWS 190315Z 06004KT 14/00 A2999 RMK A01 T01350003  RH  041%=      5-min Rain = 0
KBWS 190320Z 06004KT 13/00 A2999 RMK A01 T01340003  RH  041%=      5-min Rain = 0
KBWS 190325Z 06004KT 13/00 A2999 RMK A01 T01320004  RH  042%=      5-min Rain = 0
KBWS 190330Z 06005KT 13/00 A2998 RMK A01 T01310004  RH  042%=      5-min Rain = 0
KBWS 190335Z 06005KT 13/01 A2998 RMK A01 T01270005  RH  044%=      5-min Rain = 0
KBWS 190340Z 06005KT 13/00 A2998 RMK A01 T01280004  RH  043%=      5-min Rain = 0
KBWS 190345Z 06005KT 13/01 A2999 RMK A01 T01270005  RH  043%=      5-min Rain = 0
KBWS 190350Z 06005KT 12/01 A2999 RMK A01 T01230005  RH  045%=      5-min Rain = 0
KBWS 190355Z 06004KT 12/00 A2999 RMK A01 T01220004  RH  045%=      5-min Rain = 0
KBWS 190400Z 07003KT 12/01 A2999 RMK A01 T01210008  RH  046%=      5-min Rain = 0
KBWS 190405Z 06003KT 12/01 A2999 RMK A01 T01190005  RH  046%=      5-min Rain = 0
KBWS 190410Z 07003KT 12/00 A2999 RMK A01 T01200000  RH  044%=      5-min Rain = 0
KBWS 190415Z 07002KT 12/00 A2999 RMK A01 T012100-0  RH  044%=      5-min Rain = 0
KBWS 190420Z 06002KT 12/M00 A2999 RMK A01 T01221001  RH  043%=      5-min Rain = 0
KBWS 190425Z 06002KT 12/M00 A2999 RMK A01 T01221001  RH  043%=      5-min Rain = 0
KBWS 190430Z 05002KT 12/M00 A2999 RMK A01 T01231003  RH  042%=      5-min Rain = 0
KBWS 190435Z 06004KT 12/M00 A2999 RMK A01 T01231002  RH  043%=      5-min Rain = 0
KBWS 190440Z 05004KT 12/M00 A2999 RMK A01 T01221003  RH  043%=      5-min Rain = 0
KBWS 190445Z 06004KT 12/M00 A2999 RMK A01 T01231001  RH  043%=      5-min Rain = 0
KBWS 190450Z 06004KT 12/01 A2999 RMK A01 T01160008  RH  048%=      5-min Rain = 0
KBWS 190455Z 05004KT 11/00 A2999 RMK A01 T01100004  RH  049%=      5-min Rain = 0
KBWS 190500Z 05003KT 11/00 A2998 RMK A01 T01090003  RH  049%=      5-min Rain = 0
KBWS 190505Z 06003KT 11/00 A2998 RMK A01 T01100003  RH  048%=      5-min Rain = 0
KBWS 190510Z 06004KT 11/00 A2998 RMK A01 T01100003  RH  048%=      5-min Rain = 0
KBWS 190515Z 06004KT 11/00 A2998 RMK A01 T01100001  RH  048%=      5-min Rain = 0
KBWS 190520Z 06004KT 11/M00 A2998 RMK A01 T01101001  RH  047%=      5-min Rain = 0
KBWS 190525Z 06005KT 11/00 A2997 RMK A01 T01090001  RH  048%=      5-min Rain = 0
KBWS 190530Z 07004KT 11/00 A2998 RMK A01 T01080003  RH  049%=      5-min Rain = 0
KBWS 190535Z 07004KT 11/00 A2998 RMK A01 T010800-0  RH  048%=      5-min Rain = 0
KBWS 190540Z 07005KT 11/M00 A2998 RMK A01 T01101001  RH  047%=      5-min Rain = 0
KBWS 190545Z 07005KT 11/00 A2998 RMK A01 T01060002  RH  049%=      5-min Rain = 0
KBWS 190550Z 07004KT 10/00 A2998 RMK A01 T01020002  RH  051%=      5-min Rain = 0
KBWS 190555Z 07003KT 10/00 A2998 RMK A01 T01010003  RH  051%=      5-min Rain = 0

Page generated in 0.0219 seconds.